Time;durP1;ratioP1;P1;durP2;ratioP2;P2;SDS_P1;SDS_P2;PMS_P1;PMS_P2;Temp;Humidity;BMP_temperature;BMP_pressure;BME280_temperature;BME280_humidity;BME280_pressure;Samples;Min_cycle;Max_cycle;Signal;HPM_P1;HPM_P2
2023/03/04 00:01:20;;;;;;;0.60;0.60;;;;;;;;;;6203432;28;20304;-76
2023/03/04 00:04:26;;;;;;;0.70;0.70;;;;;;;;;;6187352;28;20478;-76
2023/03/04 00:07:31;;;;;;;0.90;0.90;;;;;;;;;;6187915;28;20267;-76
2023/03/04 00:10:39;;;;;;;1.50;0.97;;;;;;;;;;6178679;28;20272;-76
2023/03/04 00:13:45;;;;;;;5.57;0.97;;;;;;;;;;6185415;28;20300;-76
2023/03/04 00:16:50;;;;;;;0.63;0.63;;;;;;;;;;6188811;28;20290;-76
2023/03/04 00:19:56;;;;;;;2.40;0.87;;;;;;;;;;6186347;28;20297;-76
2023/03/04 00:23:02;;;;;;;0.70;0.70;;;;;;;;;;6186471;28;20316;-75
2023/03/04 00:26:08;;;;;;;1.80;0.80;;;;;;;;;;6202697;28;20292;-76
2023/03/04 00:29:14;;;;;;;0.80;0.80;;;;;;;;;;6202456;28;20293;-76
2023/03/04 00:32:19;;;;;;;0.87;0.70;;;;;;;;;;6186248;28;20296;-75
2023/03/04 00:35:26;;;;;;;0.60;0.60;;;;;;;;;;6185434;28;20307;-76
2023/03/04 00:38:31;;;;;;;2.13;0.67;;;;;;;;;;6187683;28;20301;-75
2023/03/04 00:41:36;;;;;;;0.80;0.80;;;;;;;;;;6187929;28;20432;-75
2023/03/04 00:44:41;;;;;;;3.73;0.97;;;;;;;;;;6188524;28;20295;-75
2023/03/04 00:47:47;;;;;;;1.97;1.07;;;;;;;;;;6187351;28;20307;-75
2023/03/04 00:50:53;;;;;;;2.53;0.70;;;;;;;;;;6202911;28;20300;-75
2023/03/04 00:53:58;;;;;;;1.43;0.80;;;;;;;;;;6186981;28;20287;-75
2023/03/04 00:57:04;;;;;;;0.90;0.90;;;;;;;;;;6188099;28;20442;-75
2023/03/04 01:00:12;;;;;;;0.97;0.77;;;;;;;;;;6186516;28;20300;-76
2023/03/04 01:03:18;;;;;;;2.73;1.00;;;;;;;;;;6201880;28;20446;-75
2023/03/04 01:06:24;;;;;;;1.70;0.90;;;;;;;;;;6187438;28;20398;-75
2023/03/04 01:09:30;;;;;;;4.57;0.90;;;;;;;;;;6186271;28;20292;-75
2023/03/04 01:12:35;;;;;;;0.90;0.90;;;;;;;;;;6189296;28;20292;-76
2023/03/04 01:15:40;;;;;;;1.63;0.80;;;;;;;;;;6201798;28;20312;-76
2023/03/04 01:18:46;;;;;;;3.30;1.40;;;;;;;;;;6186431;28;20325;-75
2023/03/04 01:21:54;;;;;;;0.60;0.60;;;;;;;;;;6186884;28;20499;-74
2023/03/04 01:24:59;;;;;;;3.63;1.00;;;;;;;;;;6201076;28;20323;-75
2023/03/04 01:28:04;;;;;;;1.07;1.03;;;;;;;;;;6185124;28;20317;-76
2023/03/04 01:31:10;;;;;;;0.80;0.80;;;;;;;;;;6186858;28;20294;-76
2023/03/04 01:34:17;;;;;;;0.73;0.73;;;;;;;;;;6186226;28;20311;-75
2023/03/04 01:37:24;;;;;;;3.20;0.90;;;;;;;;;;6185981;28;20292;-75
2023/03/04 01:40:32;;;;;;;2.43;1.00;;;;;;;;;;6199959;28;20320;-75
2023/03/04 01:43:40;;;;;;;0.60;0.60;;;;;;;;;;6185726;28;20328;-75
2023/03/04 01:46:50;;;;;;;1.83;0.70;;;;;;;;;;6185066;28;20293;-76
2023/03/04 01:49:57;;;;;;;2.93;1.07;;;;;;;;;;6185761;28;20299;-75
2023/03/04 01:53:05;;;;;;;1.20;1.20;;;;;;;;;;6200670;28;20314;-74
2023/03/04 01:56:17;;;;;;;0.70;0.70;;;;;;;;;;6200672;28;20388;-75
2023/03/04 01:59:23;;;;;;;0.80;0.80;;;;;;;;;;6184567;28;20299;-75
2023/03/04 02:02:28;;;;;;;0.70;0.70;;;;;;;;;;6185460;28;20461;-75
2023/03/04 02:05:34;;;;;;;0.60;0.60;;;;;;;;;;6199564;23;20224;-80
2023/03/04 02:08:40;;;;;;;1.00;1.00;;;;;;;;;;6162570;28;20302;-82
2023/03/04 02:11:47;;;;;;;3.27;0.90;;;;;;;;;;6161472;28;20288;-81
2023/03/04 02:14:53;;;;;;;2.17;0.60;;;;;;;;;;6177867;28;20496;-81
2023/03/04 02:17:58;;;;;;;2.23;0.73;;;;;;;;;;6161007;28;20300;-81
2023/03/04 02:21:08;;;;;;;1.67;0.97;;;;;;;;;;6153179;28;20291;-81
2023/03/04 02:24:18;;;;;;;1.70;0.83;;;;;;;;;;6122262;29;20308;-81
2023/03/04 02:27:24;;;;;;;0.80;0.80;;;;;;;;;;6114950;29;20301;-80
2023/03/04 02:30:29;;;;;;;0.77;0.77;;;;;;;;;;6115522;29;20545;-80
2023/03/04 02:33:36;;;;;;;5.07;0.90;;;;;;;;;;6113469;29;20305;-81
2023/03/04 02:36:42;;;;;;;1.03;0.80;;;;;;;;;;6145640;29;20293;-81
2023/03/04 02:39:49;;;;;;;5.40;1.30;;;;;;;;;;6114995;29;20306;-83
2023/03/04 02:42:55;;;;;;;0.70;0.70;;;;;;;;;;6129326;29;20305;-81
2023/03/04 02:46:01;;;;;;;0.60;0.60;;;;;;;;;;6145549;29;20486;-81
2023/03/04 02:49:06;;;;;;;10.00;1.43;;;;;;;;;;6130840;29;20313;-81
2023/03/04 02:52:17;;;;;;;0.93;0.73;;;;;;;;;;6146104;29;20595;-81
2023/03/04 02:55:23;;;;;;;3.10;0.80;;;;;;;;;;6153037;28;20299;-81
2023/03/04 02:58:30;;;;;;;3.23;2.00;;;;;;;;;;6139831;28;20310;-81
2023/03/04 03:01:35;;;;;;;2.60;1.37;;;;;;;;;;6142913;28;20461;-81
2023/03/04 03:04:41;;;;;;;5.73;0.90;;;;;;;;;;6180187;28;20305;-81
2023/03/04 03:07:49;;;;;;;6.53;1.23;;;;;;;;;;6153123;28;20318;-81
2023/03/04 03:10:55;;;;;;;2.10;0.70;;;;;;;;;;6180935;28;20310;-81
2023/03/04 03:14:02;;;;;;;3.80;1.00;;;;;;;;;;6141279;28;20308;-81
2023/03/04 03:17:07;;;;;;;1.43;1.00;;;;;;;;;;6126248;28;20299;-79
2023/03/04 03:20:15;;;;;;;7.07;1.00;;;;;;;;;;6126064;28;20299;-79
2023/03/04 03:23:20;;;;;;;1.43;1.03;;;;;;;;;;6141386;28;20302;-81
2023/03/04 03:26:25;;;;;;;2.30;1.00;;;;;;;;;;6158459;28;20306;-82
2023/03/04 03:29:32;;;;;;;5.50;1.20;;;;;;;;;;6172380;28;20310;-80
2023/03/04 03:32:38;;;;;;;2.50;0.80;;;;;;;;;;6164173;28;20297;-81
2023/03/04 03:35:44;;;;;;;1.37;1.27;;;;;;;;;;6149185;28;20305;-81
2023/03/04 03:38:49;;;;;;;1.07;0.93;;;;;;;;;;6164203;28;20302;-80
2023/03/04 03:41:54;;;;;;;1.67;0.97;;;;;;;;;;6166167;29;20301;-81
2023/03/04 03:45:01;;;;;;;1.57;0.80;;;;;;;;;;6165328;29;20303;-81
2023/03/04 03:48:06;;;;;;;5.40;0.83;;;;;;;;;;6166219;28;20387;-80
2023/03/04 03:51:12;;;;;;;3.80;0.80;;;;;;;;;;6164422;28;20304;-81
2023/03/04 03:54:17;;;;;;;0.80;0.80;;;;;;;;;;6165046;28;20306;-80
2023/03/04 03:57:22;;;;;;;2.17;1.00;;;;;;;;;;6164946;28;20306;-80
2023/03/04 04:00:29;;;;;;;0.90;0.90;;;;;;;;;;6151142;28;20305;-81
2023/03/04 04:03:34;;;;;;;4.67;1.13;;;;;;;;;;6144213;28;20318;-80
2023/03/04 04:06:40;;;;;;;2.10;1.10;;;;;;;;;;6149772;28;20554;-80
2023/03/04 04:09:45;;;;;;;0.80;0.80;;;;;;;;;;6164724;28;20298;-81
2023/03/04 04:12:50;;;;;;;0.80;0.80;;;;;;;;;;6184588;28;20297;-81
2023/03/04 04:15:58;;;;;;;0.80;0.63;;;;;;;;;;6168751;28;20302;-83
2023/03/04 04:19:03;;;;;;;0.97;0.77;;;;;;;;;;6158096;28;20300;-81
2023/03/04 04:22:15;;;;;;;1.07;1.03;;;;;;;;;;6139795;28;20294;-80
2023/03/04 04:25:20;;;;;;;1.00;0.80;;;;;;;;;;6146756;28;20306;-82
2023/03/04 04:28:26;;;;;;;4.23;0.93;;;;;;;;;;6140710;28;20300;-81
2023/03/04 04:31:32;;;;;;;6.80;1.23;;;;;;;;;;6140475;28;20286;-81
2023/03/04 04:34:38;;;;;;;4.33;0.70;;;;;;;;;;6139609;28;20297;-82
2023/03/04 04:37:43;;;;;;;2.03;0.77;;;;;;;;;;6158962;28;20566;-80
2023/03/04 04:40:48;;;;;;;0.87;0.70;;;;;;;;;;6147245;28;20302;-80
2023/03/04 04:43:54;;;;;;;2.63;0.60;;;;;;;;;;6164173;28;20305;-82
2023/03/04 04:47:00;;;;;;;4.37;0.83;;;;;;;;;;6164506;28;20487;-80
2023/03/04 04:50:06;;;;;;;0.70;0.67;;;;;;;;;;6165311;28;20295;-82
2023/03/04 04:53:13;;;;;;;2.43;0.80;;;;;;;;;;6162825;28;20297;-81
2023/03/04 04:56:20;;;;;;;1.33;1.07;;;;;;;;;;6164322;28;20309;-81
2023/03/04 04:59:25;;;;;;;0.70;0.70;;;;;;;;;;6163423;28;20312;-82
2023/03/04 05:02:35;;;;;;;0.80;0.80;;;;;;;;;;6163634;28;20306;-80
2023/03/04 05:05:40;;;;;;;4.90;0.77;;;;;;;;;;6170272;28;20413;-80
2023/03/04 05:08:45;;;;;;;0.90;0.90;;;;;;;;;;6139714;28;20298;-81
2023/03/04 05:11:50;;;;;;;2.83;0.80;;;;;;;;;;6128244;29;20307;-80
2023/03/04 05:14:55;;;;;;;1.27;0.90;;;;;;;;;;6141427;28;20305;-82
2023/03/04 05:18:02;;;;;;;1.10;1.00;;;;;;;;;;6141509;28;20306;-82
2023/03/04 05:21:08;;;;;;;0.87;0.87;;;;;;;;;;6142707;28;20302;-80
2023/03/04 05:24:13;;;;;;;0.77;0.70;;;;;;;;;;6139043;29;20314;-81
2023/03/04 05:27:18;;;;;;;0.70;0.70;;;;;;;;;;6140722;29;20441;-80
2023/03/04 05:30:24;;;;;;;0.80;0.80;;;;;;;;;;6171048;28;20470;-79
2023/03/04 05:33:31;;;;;;;1.97;0.70;;;;;;;;;;6155532;28;20306;-80
2023/03/04 05:36:36;;;;;;;0.70;0.70;;;;;;;;;;6139977;28;20580;-81
2023/03/04 05:39:41;;;;;;;1.87;0.70;;;;;;;;;;6138863;28;20302;-80
2023/03/04 05:42:46;;;;;;;0.83;0.80;;;;;;;;;;6138482;28;20326;-81
2023/03/04 05:45:52;;;;;;;0.80;0.80;;;;;;;;;;6169755;28;20479;-80
2023/03/04 05:48:58;;;;;;;3.00;0.83;;;;;;;;;;6138668;28;20302;-81
2023/03/04 05:52:04;;;;;;;0.73;0.73;;;;;;;;;;6139409;28;20553;-79
2023/03/04 05:55:11;;;;;;;0.60;0.60;;;;;;;;;;6138851;28;20304;-81
2023/03/04 05:58:17;;;;;;;0.70;0.70;;;;;;;;;;6153518;28;20495;-80
2023/03/04 06:01:22;;;;;;;0.70;0.70;;;;;;;;;;6153574;28;20582;-81
2023/03/04 06:04:29;;;;;;;0.63;0.63;;;;;;;;;;6150659;28;20309;-80
2023/03/04 06:07:34;;;;;;;0.73;0.73;;;;;;;;;;6163248;28;20294;-81
2023/03/04 06:10:40;;;;;;;0.70;0.70;;;;;;;;;;6152437;28;20267;-80
2023/03/04 06:13:48;;;;;;;0.80;0.80;;;;;;;;;;6159793;28;20481;-80
2023/03/04 06:16:53;;;;;;;0.90;0.90;;;;;;;;;;6162522;28;20478;-80
2023/03/04 06:19:59;;;;;;;0.80;0.80;;;;;;;;;;6162524;28;20302;-81
2023/03/04 06:23:05;;;;;;;1.83;0.80;;;;;;;;;;6145336;28;20296;-81
2023/03/04 06:26:14;;;;;;;3.93;0.73;;;;;;;;;;6162499;28;20321;-80
2023/03/04 06:29:20;;;;;;;1.27;0.80;;;;;;;;;;6176647;28;20596;-81
2023/03/04 06:32:26;;;;;;;1.90;0.93;;;;;;;;;;6152129;28;20293;-80
2023/03/04 06:35:33;;;;;;;0.70;0.70;;;;;;;;;;6181279;28;20308;-80
2023/03/04 06:38:39;;;;;;;0.63;0.63;;;;;;;;;;6166537;28;20302;-80
2023/03/04 06:41:45;;;;;;;0.73;0.73;;;;;;;;;;6149986;28;20545;-81
2023/03/04 06:44:50;;;;;;;0.67;0.67;;;;;;;;;;6166285;28;20297;-80
2023/03/04 06:47:55;;;;;;;0.70;0.70;;;;;;;;;;6149315;28;20521;-81
2023/03/04 06:51:07;;;;;;;2.13;0.80;;;;;;;;;;6166254;28;20323;-81
2023/03/04 06:54:13;;;;;;;0.70;0.70;;;;;;;;;;6165158;28;20304;-81
2023/03/04 06:57:20;;;;;;;0.73;0.73;;;;;;;;;;6165873;28;20304;-81
2023/03/04 07:00:25;;;;;;;0.63;0.63;;;;;;;;;;6166000;28;20329;-80
2023/03/04 07:03:31;;;;;;;0.70;0.70;;;;;;;;;;6180580;28;20297;-80
2023/03/04 07:06:37;;;;;;;0.87;0.70;;;;;;;;;;6167989;28;20303;-80
2023/03/04 07:09:43;;;;;;;1.70;0.80;;;;;;;;;;6166201;28;20309;-82
2023/03/04 07:12:48;;;;;;;0.70;0.70;;;;;;;;;;6148243;28;20299;-81
2023/03/04 07:15:54;;;;;;;0.90;0.90;;;;;;;;;;6146086;29;20297;-81
2023/03/04 07:18:59;;;;;;;0.80;0.80;;;;;;;;;;6125071;28;20590;-81
2023/03/04 07:22:05;;;;;;;4.23;0.70;;;;;;;;;;6142385;29;20290;-81
2023/03/04 07:25:13;;;;;;;2.00;1.00;;;;;;;;;;6141914;29;20322;-80
2023/03/04 07:28:20;;;;;;;1.77;1.00;;;;;;;;;;6144911;29;20306;-81
2023/03/04 07:31:28;;;;;;;2.13;0.90;;;;;;;;;;6176119;29;20241;-81
2023/03/04 07:34:33;;;;;;;1.90;0.70;;;;;;;;;;6169537;28;20298;-81
2023/03/04 07:37:40;;;;;;;0.73;0.73;;;;;;;;;;6165373;28;20283;-79
2023/03/04 07:40:45;;;;;;;1.53;0.67;;;;;;;;;;6164736;28;20305;-80
2023/03/04 07:43:51;;;;;;;0.70;0.70;;;;;;;;;;6168185;28;20310;-80
2023/03/04 07:46:56;;;;;;;0.80;0.80;;;;;;;;;;6167603;29;20348;-80
2023/03/04 07:50:01;;;;;;;0.80;0.80;;;;;;;;;;6167015;28;20444;-82
2023/03/04 07:53:08;;;;;;;0.77;0.57;;;;;;;;;;6163631;29;20301;-82
2023/03/04 07:56:14;;;;;;;2.33;0.80;;;;;;;;;;6165492;28;20301;-80
2023/03/04 07:59:21;;;;;;;0.90;0.90;;;;;;;;;;6165017;28;20314;-80
2023/03/04 08:02:26;;;;;;;1.50;0.90;;;;;;;;;;6164987;28;20325;-81
2023/03/04 08:05:31;;;;;;;9.97;1.27;;;;;;;;;;6164041;29;20613;-81
2023/03/04 08:08:38;;;;;;;2.47;0.97;;;;;;;;;;6165907;28;20305;-81
2023/03/04 08:11:44;;;;;;;0.80;0.80;;;;;;;;;;6176594;28;20291;-80
2023/03/04 08:14:49;;;;;;;0.90;0.90;;;;;;;;;;6164879;28;20305;-80
2023/03/04 08:17:55;;;;;;;0.90;0.83;;;;;;;;;;6164187;28;20302;-81
2023/03/04 08:21:00;;;;;;;0.70;0.70;;;;;;;;;;6164177;28;20297;-81
2023/03/04 08:24:07;;;;;;;1.80;0.70;;;;;;;;;;6147324;28;20488;-81
2023/03/04 08:27:13;;;;;;;0.80;0.80;;;;;;;;;;6165187;28;20321;-81
2023/03/04 08:30:19;;;;;;;0.70;0.70;;;;;;;;;;6164190;28;20302;-81
2023/03/04 08:33:24;;;;;;;14.67;5.23;;;;;;;;;;6163495;29;20297;-81
2023/03/04 08:36:29;;;;;;;1.30;1.30;;;;;;;;;;6165204;28;20596;-81
2023/03/04 08:39:36;;;;;;;1.50;1.00;;;;;;;;;;6163866;28;20293;-81
2023/03/04 08:42:42;;;;;;;1.13;1.13;;;;;;;;;;6163702;28;20457;-81
2023/03/04 08:45:47;;;;;;;2.00;1.43;;;;;;;;;;6128160;29;20302;-81
2023/03/04 08:48:52;;;;;;;0.90;0.90;;;;;;;;;;6140775;28;20302;-80
2023/03/04 08:51:57;;;;;;;4.97;1.20;;;;;;;;;;6140274;28;20446;-83
2023/03/04 08:55:04;;;;;;;4.13;1.27;;;;;;;;;;6139835;28;20331;-80
2023/03/04 08:58:12;;;;;;;0.90;0.90;;;;;;;;;;6139774;28;20310;-81
2023/03/04 09:01:17;;;;;;;1.07;0.80;;;;;;;;;;6140360;28;20311;-80
2023/03/04 09:04:23;;;;;;;2.30;0.93;;;;;;;;;;6113850;29;20312;-82
2023/03/04 09:07:28;;;;;;;1.90;1.10;;;;;;;;;;6130141;29;20278;-81
2023/03/04 09:10:35;;;;;;;1.00;1.00;;;;;;;;;;6125303;28;20318;-81
2023/03/04 09:13:43;;;;;;;1.13;1.13;;;;;;;;;;6169233;28;20291;-81
2023/03/04 09:16:49;;;;;;;3.83;1.07;;;;;;;;;;6139544;28;20597;-80
2023/03/04 09:19:54;;;;;;;1.03;0.93;;;;;;;;;;6139922;28;20302;-79
2023/03/04 09:23:00;;;;;;;3.70;1.20;;;;;;;;;;6142217;28;20316;-77
2023/03/04 09:26:17;;;;;;;4.30;1.10;;;;;;;;;;6140260;28;20493;-78
2023/03/04 09:29:23;;;;;;;1.10;1.10;;;;;;;;;;6139681;28;20588;-79
2023/03/04 09:32:29;;;;;;;1.50;0.80;;;;;;;;;;6139818;28;20300;-78
2023/03/04 09:35:35;;;;;;;1.20;1.20;;;;;;;;;;6163172;28;20295;-81
2023/03/04 09:38:41;;;;;;;0.90;0.90;;;;;;;;;;6153849;28;20295;-76
2023/03/04 09:41:51;;;;;;;5.53;0.97;;;;;;;;;;6139286;28;20294;-79
2023/03/04 09:44:58;;;;;;;3.30;1.30;;;;;;;;;;6139586;28;20632;-79
2023/03/04 09:48:03;;;;;;;0.80;0.80;;;;;;;;;;6138780;28;20304;-77
2023/03/04 09:51:20;;;;;;;4.63;1.00;;;;;;;;;;6138785;29;20306;-78
2023/03/04 09:54:33;;;;;;;1.00;1.00;;;;;;;;;;6139098;28;20304;-76
2023/03/04 09:57:49;;;;;;;1.13;1.13;;;;;;;;;;6138755;28;20619;-82
2023/03/04 10:00:56;;;;;;;3.47;0.90;;;;;;;;;;6171002;28;20409;-78
2023/03/04 10:04:06;;;;;;;1.40;1.40;;;;;;;;;;6153624;28;20315;-79
2023/03/04 10:07:18;;;;;;;2.60;1.00;;;;;;;;;;6139508;28;20611;-81
2023/03/04 10:10:27;;;;;;;2.87;1.13;;;;;;;;;;6131343;28;20301;-77
2023/03/04 10:13:38;;;;;;;2.33;0.90;;;;;;;;;;6157355;28;20298;-77
2023/03/04 10:16:47;;;;;;;2.63;0.93;;;;;;;;;;6162809;28;20279;-77
2023/03/04 10:19:57;;;;;;;2.00;0.90;;;;;;;;;;6162187;28;20308;-75
2023/03/04 10:23:11;;;;;;;1.10;1.00;;;;;;;;;;6161029;28;20307;-77
2023/03/04 10:26:20;;;;;;;1.67;1.10;;;;;;;;;;6162475;28;20554;-75
2023/03/04 10:29:26;;;;;;;1.23;1.10;;;;;;;;;;6161318;28;20314;-76
2023/03/04 10:32:31;;;;;;;0.93;0.93;;;;;;;;;;6160550;28;20295;-76
2023/03/04 10:35:37;;;;;;;1.10;1.10;;;;;;;;;;6162350;28;20293;-76
2023/03/04 10:38:43;;;;;;;1.33;1.23;;;;;;;;;;6162270;28;20331;-79
2023/03/04 10:42:00;;;;;;;2.93;1.17;;;;;;;;;;6162610;28;20299;-81
2023/03/04 10:45:21;;;;;;;1.03;1.03;;;;;;;;;;6162605;28;20340;-80
2023/03/04 10:48:29;;;;;;;2.53;0.90;;;;;;;;;;6161520;28;20288;-80
2023/03/04 10:51:43;;;;;;;2.23;0.80;;;;;;;;;;6163425;28;20295;-80
2023/03/04 10:54:51;;;;;;;2.80;1.13;;;;;;;;;;6162322;28;20305;-80
2023/03/04 10:58:01;;;;;;;1.23;1.10;;;;;;;;;;6161623;28;20292;-80
2023/03/04 11:01:10;;;;;;;2.70;0.97;;;;;;;;;;6161959;28;20297;-80
2023/03/04 11:04:18;;;;;;;4.50;1.10;;;;;;;;;;6172536;28;20384;-80
2023/03/04 11:07:25;;;;;;;2.07;1.13;;;;;;;;;;6162293;28;20579;-80
2023/03/04 11:10:32;;;;;;;1.97;1.00;;;;;;;;;;6153025;29;20305;-79
2023/03/04 11:13:37;;;;;;;2.03;0.93;;;;;;;;;;6171568;28;20293;-78
2023/03/04 11:16:54;;;;;;;0.80;0.80;;;;;;;;;;6163930;28;20275;-78
2023/03/04 11:20:07;;;;;;;4.40;1.30;;;;;;;;;;6165981;28;20312;-76
2023/03/04 11:23:16;;;;;;;1.97;1.80;;;;;;;;;;6164968;28;20634;-78
2023/03/04 11:26:26;;;;;;;6.70;1.80;;;;;;;;;;6166444;28;20294;-77
2023/03/04 11:29:35;;;;;;;5.53;0.93;;;;;;;;;;6165821;28;20301;-76
2023/03/04 11:32:45;;;;;;;1.43;1.03;;;;;;;;;;6165085;28;20297;-79
2023/03/04 11:36:08;;;;;;;1.70;1.30;;;;;;;;;;6165780;28;20368;-80
2023/03/04 11:39:20;;;;;;;2.00;1.20;;;;;;;;;;6163652;28;20340;-77
2023/03/04 11:42:33;;;;;;;7.40;2.60;;;;;;;;;;6174073;28;20298;-77
2023/03/04 11:45:59;;;;;;;2.33;1.00;;;;;;;;;;6186974;28;20304;-79
2023/03/04 11:49:21;;;;;;;1.73;1.17;;;;;;;;;;6186456;28;20301;-76
2023/03/04 11:52:36;;;;;;;1.10;1.10;;;;;;;;;;6171776;28;20271;-77
2023/03/04 11:56:00;;;;;;;2.43;1.20;;;;;;;;;;6188477;28;20302;-75
2023/03/04 11:59:30;;;;;;;1.00;1.00;;;;;;;;;;6188607;28;20297;-75
2023/03/04 12:02:43;;;;;;;1.13;0.90;;;;;;;;;;6187653;28;20308;-74
2023/03/04 12:05:59;;;;;;;7.13;1.07;;;;;;;;;;6188709;28;20298;-78
2023/03/04 12:09:14;;;;;;;1.17;0.93;;;;;;;;;;6188287;28;20306;-78
2023/03/04 12:12:32;;;;;;;1.00;0.97;;;;;;;;;;6181681;28;20289;-74
2023/03/04 12:15:43;;;;;;;2.40;1.00;;;;;;;;;;6170338;28;20306;-75
2023/03/04 12:19:00;;;;;;;1.27;1.10;;;;;;;;;;6174774;28;20441;-77
2023/03/04 12:22:18;;;;;;;0.90;0.90;;;;;;;;;;6167657;28;20301;-78
2023/03/04 12:25:42;;;;;;;2.17;1.00;;;;;;;;;;6186475;28;20317;-79
2023/03/04 12:28:56;;;;;;;4.23;1.57;;;;;;;;;;6180507;28;20570;-80
2023/03/04 12:32:06;;;;;;;5.07;1.20;;;;;;;;;;6165639;28;20303;-77
2023/03/04 12:35:24;;;;;;;2.90;1.20;;;;;;;;;;6165383;28;20314;-76
2023/03/04 12:38:48;;;;;;;4.90;1.43;;;;;;;;;;6164186;28;20310;-80
2023/03/04 12:42:00;;;;;;;0.97;0.83;;;;;;;;;;6163703;28;20403;-81
2023/03/04 12:45:26;;;;;;;;;;;;;;;;;;;;;
2023/03/04 12:49:26;;;;;;;7.33;1.10;;;;;;;;;;6162705;28;20302;-79
2023/03/04 12:52:42;;;;;;;4.03;1.23;;;;;;;;;;6185340;28;20278;-80
2023/03/04 12:55:50;;;;;;;0.80;0.80;;;;;;;;;;6164805;28;20373;-79
2023/03/04 12:58:57;;;;;;;2.03;1.00;;;;;;;;;;6163579;28;20298;-81
2023/03/04 13:02:18;;;;;;;4.40;1.93;;;;;;;;;;6164382;28;20301;-84
2023/03/04 13:05:40;;;;;;;1.30;1.30;;;;;;;;;;6163326;28;20300;-80
2023/03/04 13:09:02;;;;;;;2.20;0.90;;;;;;;;;;6163710;28;20299;-82
2023/03/04 13:12:15;;;;;;;1.00;1.00;;;;;;;;;;6152218;28;20294;-81
2023/03/04 13:15:35;;;;;;;3.63;1.10;;;;;;;;;;6154398;28;20492;-80
2023/03/04 13:18:43;;;;;;;2.87;1.10;;;;;;;;;;6155543;28;20594;-80
2023/03/04 13:21:53;;;;;;;2.97;1.00;;;;;;;;;;6168985;28;20298;-81
2023/03/04 13:24:59;;;;;;;2.17;1.03;;;;;;;;;;6163407;28;20308;-83
2023/03/04 13:28:24;;;;;;;3.40;1.60;;;;;;;;;;6162960;28;20316;-81
2023/03/04 13:31:30;;;;;;;4.67;1.00;;;;;;;;;;6177786;28;20305;-81
2023/03/04 13:34:48;;;;;;;1.10;1.10;;;;;;;;;;6163549;28;20361;-80
2023/03/04 13:37:58;;;;;;;1.27;0.60;;;;;;;;;;6166304;28;20289;-83
2023/03/04 13:41:15;;;;;;;2.80;0.80;;;;;;;;;;6181678;28;20402;-81
2023/03/04 13:44:57;;;;;;;1.23;0.90;;;;;;;;;;6163814;28;20300;-81
2023/03/04 13:48:05;;;;;;;1.27;1.10;;;;;;;;;;6163174;28;20461;-82
2023/03/04 13:51:15;;;;;;;2.10;1.10;;;;;;;;;;6163946;28;20303;-81
2023/03/04 13:54:33;;;;;;;4.60;0.60;;;;;;;;;;6183832;28;20540;-81
2023/03/04 13:57:48;;;;;;;1.87;1.07;;;;;;;;;;6173467;28;20320;-79
2023/03/04 14:00:56;;;;;;;2.07;1.10;;;;;;;;;;6164351;28;20590;-83
2023/03/04 14:04:02;;;;;;;1.30;0.80;;;;;;;;;;6162312;28;20314;-81
2023/03/04 14:07:24;;;;;;;1.20;0.90;;;;;;;;;;6146577;28;20298;-81
2023/03/04 14:10:30;;;;;;;1.60;0.80;;;;;;;;;;6144546;28;20350;-82
2023/03/04 14:13:35;;;;;;;1.30;1.30;;;;;;;;;;6141408;28;20306;-82
2023/03/04 14:16:49;;;;;;;6.77;1.50;;;;;;;;;;6154066;28;20274;-81
2023/03/04 14:19:54;;;;;;;0.90;0.90;;;;;;;;;;6139139;28;20297;-82
2023/03/04 14:23:01;;;;;;;4.77;0.90;;;;;;;;;;6138799;28;20407;-81
2023/03/04 14:26:10;;;;;;;1.97;0.80;;;;;;;;;;6138753;28;20298;-82
2023/03/04 14:29:23;;;;;;;3.10;1.10;;;;;;;;;;6137894;28;20603;-81
2023/03/04 14:32:30;;;;;;;0.70;0.70;;;;;;;;;;6139409;28;20301;-81
2023/03/04 14:35:38;;;;;;;2.03;0.80;;;;;;;;;;6152613;28;20288;-82
2023/03/04 14:38:44;;;;;;;1.07;1.07;;;;;;;;;;6138802;28;20300;-82
2023/03/04 14:41:52;;;;;;;1.90;1.50;;;;;;;;;;6138955;28;20303;-83
2023/03/04 14:44:59;;;;;;;3.53;0.90;;;;;;;;;;6137231;28;20307;-81
2023/03/04 14:48:08;;;;;;;8.27;0.93;;;;;;;;;;6139795;28;20383;-81
2023/03/04 14:51:31;;;;;;;0.90;0.90;;;;;;;;;;6139922;28;20332;-83
2023/03/04 14:54:37;;;;;;;3.63;1.03;;;;;;;;;;6143004;28;20291;-83
2023/03/04 14:57:44;;;;;;;2.13;1.27;;;;;;;;;;6159194;28;20300;-81
2023/03/04 15:00:50;;;;;;;1.20;1.20;;;;;;;;;;6168772;28;20282;-80
2023/03/04 15:03:58;;;;;;;3.40;1.10;;;;;;;;;;6157132;28;20296;-80
2023/03/04 15:07:05;;;;;;;0.90;0.90;;;;;;;;;;6159105;28;20277;-82
2023/03/04 15:10:12;;;;;;;3.00;1.00;;;;;;;;;;6163915;28;20248;-83
2023/03/04 15:13:38;;;;;;;0.87;0.83;;;;;;;;;;6151549;28;20303;-81
2023/03/04 15:16:56;;;;;;;1.03;1.03;;;;;;;;;;6143215;28;20291;-81
2023/03/04 15:20:26;;;;;;;1.77;1.20;;;;;;;;;;6128543;28;20323;-83
2023/03/04 15:23:34;;;;;;;0.90;0.90;;;;;;;;;;6122452;29;20299;-80
2023/03/04 15:26:42;;;;;;;0.93;0.80;;;;;;;;;;6142951;28;20300;-82
2023/03/04 15:29:47;;;;;;;0.90;0.90;;;;;;;;;;6142762;28;20307;-80
2023/03/04 15:32:53;;;;;;;0.90;0.90;;;;;;;;;;6142186;28;20322;-82
2023/03/04 15:36:02;;;;;;;0.93;0.90;;;;;;;;;;6141432;28;20292;-81
2023/03/04 15:39:07;;;;;;;4.77;1.43;;;;;;;;;;6141760;28;20300;-82
2023/03/04 15:42:13;;;;;;;0.90;0.90;;;;;;;;;;6157176;28;20298;-84
2023/03/04 15:45:22;;;;;;;4.63;1.40;;;;;;;;;;6141863;28;20299;-83
2023/03/04 15:48:28;;;;;;;1.20;1.20;;;;;;;;;;6129957;29;20303;-81
2023/03/04 15:51:35;;;;;;;1.50;0.90;;;;;;;;;;6143749;29;20314;-82
2023/03/04 15:54:40;;;;;;;0.73;0.73;;;;;;;;;;6164974;28;20304;-81
2023/03/04 15:57:47;;;;;;;3.73;1.20;;;;;;;;;;6163967;28;20601;-85
2023/03/04 16:00:54;;;;;;;3.30;1.00;;;;;;;;;;6142419;29;20272;-81
2023/03/04 16:04:00;;;;;;;4.30;1.30;;;;;;;;;;6140997;28;20316;-81
2023/03/04 16:07:07;;;;;;;1.07;1.07;;;;;;;;;;6156235;28;20290;-82
2023/03/04 16:10:19;;;;;;;2.50;0.90;;;;;;;;;;6144322;29;20298;-82
2023/03/04 16:13:24;;;;;;;5.57;1.10;;;;;;;;;;6153632;28;20301;-82
2023/03/04 16:16:30;;;;;;;3.37;1.30;;;;;;;;;;6187137;28;20275;-83
2023/03/04 16:19:35;;;;;;;1.80;1.17;;;;;;;;;;6179373;28;20309;-82
2023/03/04 16:22:43;;;;;;;1.43;1.20;;;;;;;;;;6187738;28;20291;-82
2023/03/04 16:25:50;;;;;;;3.60;1.03;;;;;;;;;;6188501;28;20298;-82
2023/03/04 16:28:57;;;;;;;1.10;1.10;;;;;;;;;;6181877;28;20301;-82
2023/03/04 16:32:02;;;;;;;0.80;0.80;;;;;;;;;;6188160;28;20298;-82
2023/03/04 16:35:08;;;;;;;2.07;1.20;;;;;;;;;;6174937;28;20551;-80
2023/03/04 16:38:24;;;;;;;2.87;1.30;;;;;;;;;;6183019;28;20292;-81
2023/03/04 16:41:30;;;;;;;0.90;0.90;;;;;;;;;;6164085;28;20306;-84
2023/03/04 16:44:35;;;;;;;1.47;1.40;;;;;;;;;;6150348;29;20303;-82
2023/03/04 16:47:41;;;;;;;4.93;1.57;;;;;;;;;;6175894;28;20289;-83
2023/03/04 16:50:46;;;;;;;1.30;1.30;;;;;;;;;;6175470;28;20295;-82
2023/03/04 16:53:55;;;;;;;1.70;1.00;;;;;;;;;;6164141;28;20470;-83
2023/03/04 16:57:00;;;;;;;1.63;1.10;;;;;;;;;;6164692;28;20302;-84
2023/03/04 17:00:07;;;;;;;1.70;1.60;;;;;;;;;;6164112;28;20292;-79
2023/03/04 17:03:13;;;;;;;1.00;1.00;;;;;;;;;;6163721;28;20496;-83
2023/03/04 17:06:19;;;;;;;3.67;1.10;;;;;;;;;;6164476;28;20302;-83
2023/03/04 17:09:26;;;;;;;0.90;0.90;;;;;;;;;;6163358;28;20350;-82
2023/03/04 17:12:31;;;;;;;1.30;1.30;;;;;;;;;;6152111;28;20306;-81
2023/03/04 17:15:36;;;;;;;3.10;2.03;;;;;;;;;;6145913;28;20393;-81
2023/03/04 17:18:45;;;;;;;1.57;1.23;;;;;;;;;;6162959;28;20302;-83
2023/03/04 17:21:51;;;;;;;1.87;1.30;;;;;;;;;;6164052;28;20296;-83
2023/03/04 17:24:57;;;;;;;1.43;1.33;;;;;;;;;;6164450;28;20378;-78
2023/03/04 17:28:02;;;;;;;2.73;0.90;;;;;;;;;;6178434;28;20315;-77
2023/03/04 17:31:10;;;;;;;1.77;1.67;;;;;;;;;;6164525;28;20298;-79
2023/03/04 17:34:15;;;;;;;1.10;1.10;;;;;;;;;;6163529;28;20320;-80
2023/03/04 17:37:20;;;;;;;3.43;3.13;;;;;;;;;;6164147;28;20271;-79
2023/03/04 17:40:26;;;;;;;1.00;1.00;;;;;;;;;;6147254;28;20306;-82
2023/03/04 17:43:32;;;;;;;1.27;1.00;;;;;;;;;;6162111;28;20369;-80
2023/03/04 17:46:37;;;;;;;4.30;1.00;;;;;;;;;;6162030;29;20291;-80
2023/03/04 17:49:43;;;;;;;1.03;0.73;;;;;;;;;;6145008;28;20314;-83
2023/03/04 17:52:48;;;;;;;2.13;1.00;;;;;;;;;;6162529;29;20588;-80
2023/03/04 17:55:56;;;;;;;3.03;1.00;;;;;;;;;;6163414;28;20601;-78
2023/03/04 17:59:04;;;;;;;1.10;1.10;;;;;;;;;;6162121;28;20303;-81
2023/03/04 18:02:14;;;;;;;1.90;1.00;;;;;;;;;;6162531;28;20571;-77
2023/03/04 18:05:20;;;;;;;1.33;1.23;;;;;;;;;;6161090;29;20303;-76
2023/03/04 18:08:26;;;;;;;2.80;2.70;;;;;;;;;;6161228;28;20293;-78
2023/03/04 18:11:34;;;;;;;2.73;1.97;;;;;;;;;;6174718;28;20314;-77
2023/03/04 18:14:40;;;;;;;5.00;1.53;;;;;;;;;;6162315;29;20302;-78
2023/03/04 18:17:46;;;;;;;1.50;1.40;;;;;;;;;;6161872;28;20599;-80
2023/03/04 18:20:58;;;;;;;0.90;0.90;;;;;;;;;;6146758;29;20535;-80
2023/03/04 18:24:04;;;;;;;1.60;1.20;;;;;;;;;;6145868;29;20551;-83
2023/03/04 18:27:11;;;;;;;1.07;1.07;;;;;;;;;;6162537;29;20303;-83
2023/03/04 18:30:19;;;;;;;1.30;1.20;;;;;;;;;;6162425;29;20302;-84
2023/03/04 18:33:24;;;;;;;4.13;1.37;;;;;;;;;;6162341;29;20324;-83
2023/03/04 18:36:30;;;;;;;1.23;1.20;;;;;;;;;;6162831;29;20291;-84
2023/03/04 18:39:37;;;;;;;1.87;1.17;;;;;;;;;;6162322;29;20305;-83
2023/03/04 18:42:43;;;;;;;4.40;1.37;;;;;;;;;;6161775;29;20290;-82
2023/03/04 18:45:52;;;;;;;3.67;1.40;;;;;;;;;;6162980;28;20335;-83
2023/03/04 18:49:00;;;;;;;1.30;1.20;;;;;;;;;;6161174;28;20475;-82